KZZV/ZZV METAR and TAF weather

Enter ICAO airport designator
Station Type Date Time Source
KZZV METAR 2022/06/28 23:53 UTC NOAA

KZZV 282353Z AUTO 21003KT 10SM CLR 24/09 A3019 RMK AO2 SLP220 T02440094 10261 20239 56007


Station Type Date Time Source
KZZV Decoded METAR 2022/06/28 23:53 UTC NOAA

ZANESVILLE MUNICIPAL AIRPORT , OH, United States (KZZV) 39-57N 81-54W 268M
Jun 28, 2022 - 07:53 PM EDT / 2022.06.28 2353 UTC
Wind: from the SSW (210 degrees) at 3 MPH (3 KT):0
Visibility: 10 mile(s):0
Sky conditions: clear
Temperature: 75.9 F (24.4 C)
Dew Point: 48.9 F (9.4 C)
Relative Humidity: 38%
Pressure (altimeter): 30.19 in. Hg (1022 hPa)
Pressure tendency: 0.02 inches (0.7 hPa) lower than three hours ago
ob: KZZV 282353Z AUTO 21003KT 10SM CLR 24/09 A3019 RMK AO2 SLP220 T02440094 10261 20239 56007
cycle: 0

Station Type Date Time Source
KZZV TAF 2022/06/28 18:22 UTC NOAA

TAF KZZV 281720Z 2818/2918 32004KT P6SM SKC
FM290100 00000KT P6SM SKC
FM291400 24004KT P6SM SKC

Example: see airport list